Time;durP1;ratioP1;P1;durP2;ratioP2;P2;SDS_P1;SDS_P2;PMS_P1;PMS_P2;Temp;Humidity;BMP_temperature;BMP_pressure;BME280_temperature;BME280_humidity;BME280_pressure;Samples;Min_cycle;Max_cycle;Signal;HPM_P1;HPM_P2
2022/11/24 00:01:42;;;;;;;20.13;14.00;;;20.30;64.30;;;;;;4958169;28;20023;-75
2022/11/24 00:04:10;;;;;;;23.20;13.07;;;20.30;64.00;;;;;;4962123;28;20531;-75
2022/11/24 00:06:36;;;;;;;19.55;12.85;;;20.30;64.30;;;;;;4954544;28;20041;-75
2022/11/24 00:09:03;;;;;;;19.75;12.93;;;20.30;64.30;;;;;;4958383;28;20122;-75
2022/11/24 00:11:32;;;;;;;22.75;13.45;;;20.30;64.40;;;;;;4960491;28;20043;-75
2022/11/24 00:13:58;;;;;;;21.40;12.45;;;20.30;64.50;;;;;;4957948;28;20401;-75
2022/11/24 00:16:27;;;;;;;23.33;13.10;;;20.30;64.50;;;;;;4961480;28;20023;-75
2022/11/24 00:18:55;;;;;;;23.35;12.70;;;20.30;64.50;;;;;;4959999;28;20028;-74
2022/11/24 00:21:21;;;;;;;20.05;13.07;;;20.30;64.60;;;;;;4968489;28;20110;-74
2022/11/24 00:23:48;;;;;;;22.13;13.52;;;20.30;64.30;;;;;;4953218;28;20087;-74
2022/11/24 00:26:19;;;;;;;22.95;12.88;;;20.30;64.60;;;;;;4953418;28;20465;-75
2022/11/24 00:28:47;;;;;;;18.42;12.70;;;20.30;64.50;;;;;;4964222;28;20327;-75
2022/11/24 00:31:17;;;;;;;18.08;12.05;;;20.30;64.80;;;;;;4966316;28;20089;-75
2022/11/24 00:33:44;;;;;;;20.65;12.57;;;20.30;64.80;;;;;;4966407;28;20023;-75
2022/11/24 00:36:10;;;;;;;19.58;12.70;;;20.30;64.90;;;;;;4960314;28;20031;-75
2022/11/24 00:38:35;;;;;;;23.95;12.95;;;20.40;64.70;;;;;;4964279;28;20406;-76
2022/11/24 00:41:01;;;;;;;19.08;11.82;;;20.40;64.60;;;;;;4965835;28;20035;-75
2022/11/24 00:43:27;;;;;;;24.38;12.73;;;20.40;65.10;;;;;;4975658;28;20031;-76
2022/11/24 00:45:53;;;;;;;26.60;11.93;;;20.40;65.30;;;;;;4963523;28;20039;-76
2022/11/24 00:48:18;;;;;;;38.42;13.15;;;20.40;65.20;;;;;;4960823;28;20030;-75
2022/11/24 00:50:53;;;;;;;21.15;12.85;;;20.40;65.10;;;;;;4960189;28;20031;-75
2022/11/24 00:53:19;;;;;;;19.73;12.35;;;20.40;65.80;;;;;;4957096;28;20027;-75
2022/11/24 00:55:48;;;;;;;22.98;13.23;;;20.40;65.30;;;;;;4962516;28;20102;-74
2022/11/24 00:58:14;;;;;;;21.77;12.40;;;20.40;65.30;;;;;;4964937;28;20117;-75
2022/11/24 01:00:39;;;;;;;19.95;12.13;;;20.40;65.30;;;;;;4964859;28;20109;-75
2022/11/24 01:03:06;;;;;;;21.08;12.35;;;20.40;65.40;;;;;;4952389;28;20123;-74
2022/11/24 01:05:35;;;;;;;21.65;11.73;;;20.40;65.40;;;;;;4962578;28;20031;-73
2022/11/24 01:08:01;;;;;;;17.90;11.77;;;20.30;65.40;;;;;;4961672;28;20035;-75
2022/11/24 01:10:27;;;;;;;16.85;11.75;;;20.40;65.40;;;;;;4952985;28;20089;-74
2022/11/24 01:12:53;;;;;;;21.05;12.75;;;20.40;65.30;;;;;;4960919;28;20030;-75
2022/11/24 01:15:19;;;;;;;23.55;12.45;;;20.40;65.40;;;;;;4961059;28;20035;-75
2022/11/24 01:17:45;;;;;;;19.67;12.02;;;20.40;65.40;;;;;;4971749;28;20420;-75
2022/11/24 01:20:11;;;;;;;20.15;12.55;;;20.40;65.40;;;;;;4951766;28;20031;-74
2022/11/24 01:22:37;;;;;;;18.15;12.00;;;20.40;65.30;;;;;;4961329;28;20030;-74
2022/11/24 01:25:10;;;;;;;20.98;12.05;;;20.40;65.40;;;;;;4947322;28;20038;-74
2022/11/24 01:27:37;;;;;;;24.45;11.35;;;20.40;65.40;;;;;;4956366;28;20110;-75
2022/11/24 01:30:05;;;;;;;21.77;12.10;;;20.40;65.50;;;;;;4967367;28;20093;-74
2022/11/24 01:32:32;;;;;;;19.48;11.57;;;20.40;65.30;;;;;;4959284;28;20093;-74
2022/11/24 01:34:58;;;;;;;21.38;11.82;;;20.40;65.20;;;;;;4973323;28;20035;-75
2022/11/24 01:37:24;;;;;;;21.13;11.75;;;20.40;65.40;;;;;;4954780;28;20027;-74
2022/11/24 01:39:50;;;;;;;16.63;11.25;;;20.40;65.20;;;;;;4954579;28;20206;-75
2022/11/24 01:42:16;;;;;;;18.63;11.90;;;20.40;65.40;;;;;;4960402;23;20154;-75
2022/11/24 01:44:41;;;;;;;17.05;10.80;;;20.40;65.00;;;;;;4945477;29;20063;-76
2022/11/24 01:47:31;;;;;;;17.20;11.15;;;20.40;64.90;;;;;;4943899;29;20070;-78
2022/11/24 01:49:58;;;;;;;;;;;20.40;65.00;;;;;;4942615;29;20050;-79
2022/11/24 01:52:36;;;;;;;17.90;11.52;;;20.40;65.20;;;;;;4934823;28;19911;-77
2022/11/24 01:55:08;;;;;;;18.52;11.50;;;20.50;65.40;;;;;;4914918;29;20103;-77
2022/11/24 01:57:39;;;;;;;18.52;12.10;;;20.40;65.10;;;;;;4928141;29;20036;-76
2022/11/24 02:00:08;;;;;;;18.58;10.93;;;20.50;65.20;;;;;;4928308;29;20034;-76
2022/11/24 02:02:41;;;;;;;20.42;11.40;;;20.50;65.10;;;;;;4931298;29;20091;-77
2022/11/24 02:05:19;;;;;;;18.25;11.68;;;20.50;65.60;;;;;;4930305;29;20028;-76
2022/11/24 02:07:46;;;;;;;22.92;11.38;;;20.50;65.40;;;;;;4930115;29;20553;-76
2022/11/24 02:10:14;;;;;;;21.95;11.95;;;20.50;66.10;;;;;;4930253;29;20040;-75
2022/11/24 02:12:45;;;;;;;16.98;11.05;;;20.50;65.50;;;;;;4924845;29;20115;-75
2022/11/24 02:15:14;;;;;;;20.77;11.65;;;20.40;65.40;;;;;;4911420;29;20031;-75
2022/11/24 02:17:39;;;;;;;19.98;11.77;;;20.40;65.50;;;;;;4931458;29;20063;-76
2022/11/24 02:20:08;;;;;;;26.08;12.40;;;20.40;65.40;;;;;;4931602;29;20451;-77
2022/11/24 02:22:33;;;;;;;25.92;12.23;;;20.40;65.60;;;;;;4930705;29;20371;-75
2022/11/24 02:25:18;;;;;;;22.33;12.15;;;20.40;65.50;;;;;;4931115;29;20038;-75
2022/11/24 02:27:44;;;;;;;22.75;12.77;;;20.40;65.30;;;;;;4942759;29;20059;-74
2022/11/24 02:30:10;;;;;;;24.38;11.93;;;20.40;65.30;;;;;;4923100;29;20384;-78
2022/11/24 02:32:39;;;;;;;40.00;32.50;;;20.40;65.20;;;;;;4955798;28;20683;-78
2022/11/24 02:35:06;;;;;;;35.73;28.07;;;20.10;58.30;;;;;;4924120;29;20023;-78
2022/11/24 02:37:32;;;;;;;35.35;25.80;;;19.60;51.20;;;;;;4913431;29;20056;-76
2022/11/24 02:39:57;;;;;;;36.50;25.75;;;19.40;53.10;;;;;;4928700;29;20069;-75
2022/11/24 02:42:25;;;;;;;31.20;22.45;;;19.60;57.60;;;;;;4923479;29;20132;-74
2022/11/24 02:44:55;;;;;;;32.53;22.70;;;19.70;55.80;;;;;;4922752;29;20384;-74
2022/11/24 02:47:21;;;;;;;;;;;19.80;55.50;;;;;;4926427;29;20039;-74
2022/11/24 02:49:47;;;;;;;30.65;20.50;;;19.90;56.40;;;;;;4956887;28;19921;-74
2022/11/24 02:52:13;;;;;;;29.42;20.77;;;20.00;56.90;;;;;;4924728;29;20092;-75
2022/11/24 02:54:38;;;;;;;27.20;20.40;;;20.00;57.50;;;;;;4926195;29;20074;-74
2022/11/24 02:57:04;;;;;;;28.90;20.95;;;20.00;58.30;;;;;;4926135;29;20404;-74
2022/11/24 02:59:30;;;;;;;30.33;19.77;;;20.10;58.40;;;;;;4924678;29;20035;-74
2022/11/24 03:01:56;;;;;;;28.73;19.65;;;20.10;58.50;;;;;;4923856;29;20023;-74
2022/11/24 03:04:22;;;;;;;24.98;19.42;;;20.10;58.80;;;;;;4927473;29;20030;-75
2022/11/24 03:06:47;;;;;;;27.42;19.33;;;20.10;59.00;;;;;;4933128;29;20020;-74
2022/11/24 03:09:13;;;;;;;26.85;18.20;;;20.10;59.00;;;;;;4931257;29;20611;-74
2022/11/24 03:11:39;;;;;;;27.50;18.88;;;20.10;59.20;;;;;;4931291;29;20035;-74
2022/11/24 03:14:05;;;;;;;25.33;18.13;;;20.10;59.40;;;;;;4914546;29;20068;-74
2022/11/24 03:16:32;;;;;;;26.38;18.23;;;20.10;59.70;;;;;;4930838;29;20051;-74
2022/11/24 03:18:58;;;;;;;26.15;18.08;;;20.10;59.60;;;;;;4930243;29;20035;-74
2022/11/24 03:21:24;;;;;;;25.70;19.70;;;20.10;59.80;;;;;;4928016;29;20028;-74
2022/11/24 03:23:50;;;;;;;24.63;18.27;;;20.10;59.80;;;;;;4930279;29;20051;-74
2022/11/24 03:26:18;;;;;;;25.23;17.73;;;20.10;60.50;;;;;;4930654;29;20043;-74
2022/11/24 03:28:44;;;;;;;24.73;17.77;;;20.20;60.50;;;;;;4930811;29;20371;-74
2022/11/24 03:31:11;;;;;;;25.90;17.85;;;20.10;60.60;;;;;;4930281;29;20038;-74
2022/11/24 03:33:37;;;;;;;24.95;17.83;;;20.10;60.60;;;;;;4932471;29;20031;-74
2022/11/24 03:36:04;;;;;;;26.30;17.58;;;20.10;60.40;;;;;;4925640;29;20180;-74
2022/11/24 03:38:30;;;;;;;26.38;17.02;;;20.10;60.50;;;;;;4929659;29;20031;-74
2022/11/24 03:40:56;;;;;;;25.38;18.00;;;20.10;60.90;;;;;;4930834;29;20039;-74
2022/11/24 03:43:21;;;;;;;25.48;17.55;;;20.10;60.70;;;;;;4932843;29;20485;-74
2022/11/24 03:45:48;;;;;;;23.58;16.63;;;20.10;60.90;;;;;;4935795;29;20028;-74
2022/11/24 03:48:20;;;;;;;23.77;16.63;;;20.10;61.20;;;;;;4935317;29;20041;-74
2022/11/24 03:50:54;;;;;;;22.65;15.65;;;20.10;61.20;;;;;;4929413;29;20047;-74
2022/11/24 03:53:22;;;;;;;20.80;16.15;;;20.10;61.60;;;;;;4931051;29;20406;-74
2022/11/24 03:55:47;;;;;;;22.88;16.52;;;20.10;61.30;;;;;;4935482;29;20512;-74
2022/11/24 03:58:13;;;;;;;24.58;16.90;;;20.10;61.40;;;;;;4933905;29;20035;-74
2022/11/24 04:00:40;;;;;;;21.00;15.40;;;20.10;61.60;;;;;;4934603;29;20064;-75
2022/11/24 04:03:06;;;;;;;24.40;15.70;;;20.10;62.10;;;;;;4942308;29;20039;-74
2022/11/24 04:05:35;;;;;;;24.80;17.20;;;20.10;61.80;;;;;;4933425;29;20484;-75
2022/11/24 04:08:02;;;;;;;23.30;16.48;;;20.10;62.00;;;;;;4913402;29;20040;-74
2022/11/24 04:10:30;;;;;;;21.98;16.02;;;20.10;62.20;;;;;;4935185;29;20521;-74
2022/11/24 04:12:56;;;;;;;22.65;16.08;;;20.10;61.70;;;;;;4934388;29;20035;-74
2022/11/24 04:15:21;;;;;;;22.98;16.48;;;20.10;62.20;;;;;;4935333;29;20036;-74
2022/11/24 04:17:48;;;;;;;22.77;15.88;;;20.00;62.00;;;;;;4932270;29;20035;-74
2022/11/24 04:20:15;;;;;;;25.35;16.25;;;20.00;62.20;;;;;;4931537;29;20087;-74
2022/11/24 04:22:41;;;;;;;25.63;16.10;;;20.00;62.40;;;;;;4929027;29;20537;-75
2022/11/24 04:25:08;;;;;;;21.45;16.05;;;20.10;62.30;;;;;;4935074;29;20027;-74
2022/11/24 04:27:35;;;;;;;22.50;14.88;;;20.00;62.80;;;;;;4934806;29;20035;-74
2022/11/24 04:30:03;;;;;;;21.02;15.43;;;20.00;62.70;;;;;;4934363;29;20119;-73
2022/11/24 04:32:29;;;;;;;21.98;15.23;;;20.00;62.90;;;;;;4930746;29;20034;-74
2022/11/24 04:34:54;;;;;;;21.38;15.40;;;20.00;63.20;;;;;;4930533;29;20032;-74
2022/11/24 04:37:20;;;;;;;21.45;15.48;;;20.00;63.00;;;;;;4931681;29;20028;-74
2022/11/24 04:39:46;;;;;;;23.90;15.60;;;20.00;62.80;;;;;;4932697;29;20394;-74
2022/11/24 04:42:12;;;;;;;21.58;15.57;;;20.00;63.00;;;;;;4925092;29;20035;-74
2022/11/24 04:44:38;;;;;;;20.63;14.80;;;20.00;63.00;;;;;;4933506;29;20130;-75
2022/11/24 04:47:04;;;;;;;20.60;14.82;;;20.00;63.10;;;;;;4934919;29;20481;-74
2022/11/24 04:49:30;;;;;;;19.83;14.68;;;20.00;63.40;;;;;;4939681;29;20043;-74
2022/11/24 04:51:56;;;;;;;22.27;15.25;;;20.00;63.20;;;;;;4933809;29;20036;-74
2022/11/24 04:54:22;;;;;;;20.80;14.98;;;20.00;63.60;;;;;;4933804;28;20040;-75
2022/11/24 04:56:51;;;;;;;22.60;15.02;;;20.00;63.50;;;;;;4932761;29;20024;-74
2022/11/24 04:59:18;;;;;;;;;;;19.90;63.50;;;;;;4934928;29;20112;-74
2022/11/24 05:01:45;;;;;;;20.65;14.70;;;19.90;63.50;;;;;;4933277;29;19910;-75
2022/11/24 05:04:13;;;;;;;22.02;15.52;;;19.90;63.50;;;;;;4934022;29;20036;-74
2022/11/24 05:06:38;;;;;;;19.60;14.00;;;19.90;63.30;;;;;;4940921;28;20035;-74
2022/11/24 05:09:06;;;;;;;20.77;14.55;;;20.00;63.40;;;;;;4929646;28;20129;-74
2022/11/24 05:11:32;;;;;;;19.73;14.52;;;19.90;63.80;;;;;;4932089;29;20063;-74
2022/11/24 05:13:58;;;;;;;21.20;14.75;;;19.90;63.70;;;;;;4930878;29;20039;-74
2022/11/24 05:16:24;;;;;;;23.02;15.48;;;19.90;63.20;;;;;;4930831;29;20034;-74
2022/11/24 05:18:50;;;;;;;24.13;14.57;;;19.90;63.70;;;;;;4924442;29;20027;-74
2022/11/24 05:21:16;;;;;;;22.80;14.55;;;19.90;63.70;;;;;;4932612;29;20038;-74
2022/11/24 05:23:41;;;;;;;20.13;13.73;;;19.90;63.70;;;;;;4935654;29;20032;-74
2022/11/24 05:26:08;;;;;;;24.20;14.07;;;19.90;63.20;;;;;;4941214;29;20813;-75
2022/11/24 05:28:34;;;;;;;19.33;13.95;;;19.90;63.70;;;;;;4931239;29;20502;-74
2022/11/24 05:31:01;;;;;;;19.95;14.15;;;19.90;63.80;;;;;;4933609;29;20035;-74
2022/11/24 05:33:28;;;;;;;19.77;14.32;;;19.90;63.80;;;;;;4931487;29;20024;-74
2022/11/24 05:35:58;;;;;;;19.50;13.98;;;19.90;64.00;;;;;;4933418;29;20044;-74
2022/11/24 05:38:25;;;;;;;17.58;13.43;;;19.90;64.00;;;;;;4934132;29;20032;-74
2022/11/24 05:40:51;;;;;;;19.58;13.85;;;19.90;64.20;;;;;;4933885;29;20084;-74
2022/11/24 05:43:17;;;;;;;19.58;13.32;;;19.90;63.90;;;;;;4932990;29;20422;-75
2022/11/24 05:45:43;;;;;;;18.98;13.50;;;19.90;63.90;;;;;;4946686;29;20032;-74
2022/11/24 05:48:12;;;;;;;18.40;13.45;;;19.90;63.80;;;;;;4927111;29;20040;-75
2022/11/24 05:50:38;;;;;;;21.23;13.77;;;19.90;63.90;;;;;;4931247;29;20497;-75
2022/11/24 05:53:12;;;;;;;18.30;13.23;;;19.90;64.00;;;;;;4931549;29;20043;-74
2022/11/24 05:55:39;;;;;;;22.08;13.35;;;19.90;64.30;;;;;;4930250;29;20470;-74
2022/11/24 05:58:07;;;;;;;19.95;12.95;;;19.90;63.50;;;;;;4932032;29;20502;-74
2022/11/24 06:00:34;;;;;;;20.20;12.82;;;19.90;63.90;;;;;;4932704;29;20078;-74
2022/11/24 06:03:01;;;;;;;19.55;13.18;;;19.90;64.40;;;;;;4925194;29;20036;-74
2022/11/24 06:05:28;;;;;;;20.60;13.73;;;19.90;63.90;;;;;;4931982;29;20127;-74
2022/11/24 06:07:54;;;;;;;20.92;13.77;;;19.90;63.90;;;;;;4940206;29;20036;-75
2022/11/24 06:10:22;;;;;;;18.70;13.18;;;19.90;64.40;;;;;;4930662;29;20043;-74
2022/11/24 06:12:49;;;;;;;20.23;13.65;;;19.90;64.20;;;;;;4931582;29;20078;-75
2022/11/24 06:15:15;;;;;;;19.08;13.32;;;19.90;64.20;;;;;;4932942;29;20039;-74
2022/11/24 06:17:40;;;;;;;18.25;13.32;;;19.90;64.30;;;;;;4931967;29;20028;-74
2022/11/24 06:20:08;;;;;;;18.75;12.68;;;19.90;64.10;;;;;;4930140;29;20449;-74
2022/11/24 06:22:33;;;;;;;19.27;13.27;;;19.90;64.10;;;;;;4921557;29;20501;-74
2022/11/24 06:24:59;;;;;;;18.75;12.77;;;19.90;64.20;;;;;;4931222;29;20043;-75
2022/11/24 06:27:26;;;;;;;19.27;12.95;;;19.90;64.30;;;;;;4930753;29;20036;-74
2022/11/24 06:29:52;;;;;;;19.02;13.32;;;19.90;64.20;;;;;;4932234;29;20038;-74
2022/11/24 06:32:18;;;;;;;19.58;13.05;;;19.90;64.50;;;;;;4926554;29;20423;-74
2022/11/24 06:34:44;;;;;;;19.20;12.68;;;19.90;64.20;;;;;;4922357;29;20031;-75
2022/11/24 06:37:10;;;;;;;18.27;13.43;;;19.90;64.30;;;;;;4927951;29;20039;-74
2022/11/24 06:39:36;;;;;;;18.00;13.02;;;19.90;65.00;;;;;;4916512;29;20032;-74
2022/11/24 06:42:02;;;;;;;18.70;13.07;;;19.90;64.30;;;;;;4931590;29;20031;-74
2022/11/24 06:44:28;;;;;;;16.70;12.25;;;19.90;64.30;;;;;;4932330;29;20050;-74
2022/11/24 06:46:54;;;;;;;18.35;12.63;;;19.90;64.40;;;;;;4930685;29;20039;-74
2022/11/24 06:49:19;;;;;;;18.75;12.90;;;19.90;64.30;;;;;;4929593;29;20043;-74
2022/11/24 06:51:45;;;;;;;19.23;12.20;;;19.90;64.20;;;;;;4930062;29;20023;-73
2022/11/24 06:54:19;;;;;;;18.88;13.15;;;19.80;64.50;;;;;;4931454;29;20039;-74
2022/11/24 06:56:46;;;;;;;19.08;12.48;;;19.90;65.00;;;;;;4914294;29;20036;-74
2022/11/24 06:59:19;;;;;;;19.13;13.52;;;19.90;64.50;;;;;;4931822;29;20103;-75
2022/11/24 07:01:46;;;;;;;19.42;12.23;;;19.80;64.30;;;;;;4922875;29;20031;-74
2022/11/24 07:04:12;;;;;;;19.05;12.82;;;19.90;64.20;;;;;;4931379;29;20232;-74
2022/11/24 07:06:40;;;;;;;18.27;12.88;;;19.90;64.20;;;;;;4927387;29;20461;-75
2022/11/24 07:09:08;;;;;;;18.77;12.43;;;19.80;63.90;;;;;;4928553;29;20062;-74
2022/11/24 07:11:34;;;;;;;16.73;12.07;;;19.90;64.00;;;;;;4930849;29;20042;-74
2022/11/24 07:14:00;;;;;;;19.05;12.95;;;19.90;64.20;;;;;;4927881;29;20421;-74
2022/11/24 07:16:26;;;;;;;17.98;12.23;;;19.80;64.20;;;;;;4912883;29;20024;-74
2022/11/24 07:18:52;;;;;;;18.02;12.68;;;19.80;64.10;;;;;;4931117;29;20024;-75
2022/11/24 07:21:20;;;;;;;18.75;12.68;;;19.90;64.10;;;;;;4930792;29;20039;-74
2022/11/24 07:23:54;;;;;;;17.60;12.90;;;19.80;64.00;;;;;;4931150;29;20026;-74
2022/11/24 07:26:20;;;;;;;18.92;12.95;;;19.90;64.30;;;;;;4928615;29;20031;-74
2022/11/24 07:28:46;;;;;;;18.05;13.00;;;19.80;64.30;;;;;;4926883;29;20114;-75
2022/11/24 07:31:14;;;;;;;18.55;12.80;;;19.80;64.40;;;;;;4926678;29;20035;-74
2022/11/24 07:33:40;;;;;;;17.77;12.52;;;19.80;64.40;;;;;;4937086;29;20050;-74
2022/11/24 07:36:07;;;;;;;17.67;12.23;;;19.90;64.60;;;;;;4930536;29;20032;-75
2022/11/24 07:38:34;;;;;;;18.73;12.18;;;19.80;64.40;;;;;;4928363;29;20458;-74
2022/11/24 07:43:40;;;;;;;17.95;12.02;;;19.80;64.40;;;;;;4940161;28;20130;-74
2022/11/24 07:46:10;;;;;;;17.02;12.07;;;19.80;64.50;;;;;;4950224;28;20031;-74
2022/11/24 07:48:36;;;;;;;18.88;12.27;;;19.80;64.60;;;;;;4953066;28;20043;-75
2022/11/24 07:51:03;;;;;;;18.05;12.52;;;19.80;64.80;;;;;;4951037;28;20034;-74
2022/11/24 07:53:30;;;;;;;17.65;12.55;;;19.80;64.60;;;;;;4949283;28;20042;-74
2022/11/24 07:56:01;;;;;;;20.15;12.38;;;19.80;64.50;;;;;;4950327;28;20094;-74
2022/11/24 07:58:28;;;;;;;17.55;11.93;;;19.80;64.50;;;;;;4947672;28;20149;-74
2022/11/24 08:00:54;;;;;;;17.27;12.13;;;19.80;64.50;;;;;;4950539;28;20126;-75
2022/11/24 08:03:20;;;;;;;18.00;12.20;;;19.80;64.30;;;;;;4953294;28;20118;-74
2022/11/24 08:05:56;;;;;;;16.73;11.82;;;19.80;64.30;;;;;;4945155;28;20118;-74
2022/11/24 08:08:22;;;;;;;16.85;11.75;;;19.80;64.60;;;;;;4953064;28;20031;-74
2022/11/24 08:10:48;;;;;;;18.27;12.07;;;19.80;64.30;;;;;;4950019;28;20110;-74
2022/11/24 08:13:13;;;;;;;17.75;12.20;;;19.90;64.20;;;;;;4941934;28;20042;-75
2022/11/24 08:15:39;;;;;;;17.08;12.00;;;19.80;64.00;;;;;;4947760;29;20111;-74
2022/11/24 08:18:05;;;;;;;20.25;12.52;;;19.80;64.10;;;;;;4949767;28;20027;-74
2022/11/24 08:20:31;;;;;;;16.85;11.80;;;19.80;64.10;;;;;;4950030;28;20039;-74
2022/11/24 08:22:58;;;;;;;19.20;12.65;;;19.90;64.20;;;;;;4950957;28;20031;-74
2022/11/24 08:25:30;;;;;;;18.50;12.32;;;19.80;64.10;;;;;;4944031;28;20465;-74
2022/11/24 08:27:56;;;;;;;18.45;12.30;;;19.90;64.10;;;;;;4942759;28;20028;-75
2022/11/24 08:30:22;;;;;;;21.40;12.77;;;19.90;64.10;;;;;;4948990;29;20027;-75
2022/11/24 08:32:48;;;;;;;17.00;12.13;;;19.90;64.70;;;;;;4945151;28;20045;-75
2022/11/24 08:35:14;;;;;;;19.02;13.25;;;19.90;63.90;;;;;;4952672;28;20042;-75
2022/11/24 08:37:39;;;;;;;17.65;11.55;;;20.00;63.80;;;;;;4953188;28;20031;-75
2022/11/24 08:40:06;;;;;;;19.55;12.75;;;20.00;63.90;;;;;;4952782;28;20271;-75
2022/11/24 08:42:32;;;;;;;20.15;12.38;;;20.00;63.80;;;;;;4951853;28;20027;-75
2022/11/24 08:44:57;;;;;;;19.33;11.95;;;20.00;64.10;;;;;;4953044;28;20057;-75
2022/11/24 08:47:23;;;;;;;24.80;13.50;;;20.00;64.40;;;;;;4952734;28;20037;-74
2022/11/24 08:49:49;;;;;;;33.75;13.38;;;20.10;64.90;;;;;;4952934;28;20501;-74
2022/11/24 08:52:15;;;;;;;22.08;12.88;;;20.10;65.60;;;;;;4951541;28;20038;-74
2022/11/24 08:54:43;;;;;;;20.75;13.45;;;20.20;66.50;;;;;;4959973;28;20503;-74
2022/11/24 08:57:09;;;;;;;20.85;13.05;;;20.20;66.10;;;;;;4950774;28;20445;-75
2022/11/24 08:59:35;;;;;;;26.98;13.23;;;20.30;65.50;;;;;;4953621;28;20114;-81
2022/11/24 09:02:01;;;;;;;30.70;13.90;;;20.30;65.70;;;;;;4949162;28;20545;-75
2022/11/24 09:04:27;;;;;;;30.17;12.85;;;20.40;66.10;;;;;;4950953;28;20469;-75
2022/11/24 09:06:53;;;;;;;24.45;14.30;;;20.30;65.90;;;;;;4954005;28;20055;-74
2022/11/24 09:09:18;;;;;;;26.70;15.25;;;20.30;65.70;;;;;;4953241;28;20477;-73
2022/11/24 09:11:44;;;;;;;31.15;17.00;;;20.10;65.20;;;;;;4947364;28;20507;-73
2022/11/24 09:14:10;;;;;;;32.35;16.58;;;20.10;63.10;;;;;;4948933;28;20035;-73
2022/11/24 09:16:36;;;;;;;24.77;16.95;;;20.10;61.70;;;;;;4951679;28;20617;-73
2022/11/24 09:19:04;;;;;;;31.92;16.35;;;20.10;60.70;;;;;;4952506;28;20505;-73
2022/11/24 09:21:33;;;;;;;25.40;15.25;;;20.10;61.30;;;;;;4948963;28;20093;-74
2022/11/24 09:23:59;;;;;;;27.30;14.90;;;20.00;61.20;;;;;;4946092;28;20326;-74
2022/11/24 09:26:27;;;;;;;30.75;16.48;;;20.00;61.70;;;;;;4948122;28;21514;-73
2022/11/24 09:28:54;;;;;;;30.67;15.13;;;20.10;59.10;;;;;;4950209;28;20148;-74
2022/11/24 09:31:27;;;;;;;26.85;14.98;;;20.10;58.70;;;;;;4952014;28;20106;-74
2022/11/24 09:33:54;;;;;;;26.45;14.65;;;20.20;58.80;;;;;;4954258;28;20493;-73
2022/11/24 09:36:20;;;;;;;26.15;14.55;;;20.30;59.00;;;;;;4952189;28;20078;-73
2022/11/24 09:38:46;;;;;;;22.30;14.95;;;20.40;59.60;;;;;;4947976;28;20366;-74
2022/11/24 09:41:31;;;;;;;20.67;14.38;;;20.40;59.80;;;;;;4951742;28;20030;-73
2022/11/24 09:44:46;;;;;;;19.50;13.55;;;20.40;60.20;;;;;;4960286;28;20038;-74
2022/11/24 09:47:30;;;;;;;26.20;14.10;;;20.40;60.50;;;;;;4949807;28;20046;-74
2022/11/24 09:50:21;;;;;;;26.23;13.82;;;20.50;60.70;;;;;;4944846;28;20027;-73
2022/11/24 09:52:53;;;;;;;21.30;12.98;;;20.50;61.10;;;;;;4956921;28;20043;-73
2022/11/24 09:55:26;;;;;;;22.40;14.02;;;20.50;61.20;;;;;;4951332;28;20045;-73
2022/11/24 09:58:08;;;;;;;21.52;13.43;;;20.50;61.20;;;;;;4946650;28;20074;-74
2022/11/24 10:00:35;;;;;;;23.13;13.32;;;20.40;61.20;;;;;;4952113;28;20024;-73
2022/11/24 10:03:01;;;;;;;21.15;13.20;;;20.40;61.50;;;;;;4946138;28;20023;-73
2022/11/24 10:05:31;;;;;;;20.33;13.00;;;20.40;61.50;;;;;;4950898;28;20042;-73
2022/11/24 10:08:38;;;;;;;24.27;12.73;;;20.40;61.60;;;;;;4953304;28;20055;-74
2022/11/24 10:11:11;;;;;;;25.45;13.23;;;20.40;61.60;;;;;;4946645;29;20067;-74
2022/11/24 10:13:53;;;;;;;20.30;13.50;;;20.40;61.80;;;;;;4955343;28;20659;-73
2022/11/24 10:17:03;;;;;;;19.50;12.52;;;20.40;61.80;;;;;;4952244;29;20051;-74
2022/11/24 10:19:29;;;;;;;20.20;12.57;;;20.40;61.90;;;;;;4942630;29;20453;-74
2022/11/24 10:22:08;;;;;;;19.33;12.57;;;20.40;61.90;;;;;;4941760;28;20063;-74
2022/11/24 10:25:32;;;;;;;19.65;12.98;;;20.40;62.00;;;;;;4951249;28;20485;-74
2022/11/24 10:28:02;;;;;;;20.27;12.60;;;20.40;62.30;;;;;;4938435;28;20070;-74
2022/11/24 10:30:30;;;;;;;18.90;12.32;;;20.40;62.30;;;;;;4953904;28;20022;-74
2022/11/24 10:33:13;;;;;;;22.98;13.55;;;20.40;62.30;;;;;;4981355;28;20519;-74
2022/11/24 10:35:47;;;;;;;19.05;12.60;;;20.40;62.40;;;;;;4951878;29;20035;-74
2022/11/24 10:38:37;;;;;;;19.27;12.27;;;20.40;62.50;;;;;;4946513;28;20023;-74
2022/11/24 10:41:12;;;;;;;21.33;12.50;;;20.40;62.40;;;;;;4946441;28;20030;-73
2022/11/24 10:43:41;;;;;;;20.35;12.38;;;20.40;62.40;;;;;;4948339;28;20031;-74
2022/11/24 10:46:07;;;;;;;19.55;12.00;;;20.40;62.50;;;;;;4951646;28;20035;-74
2022/11/24 10:48:42;;;;;;;19.55;12.35;;;20.40;62.60;;;;;;4949846;28;20102;-74
2022/11/24 10:51:46;;;;;;;19.75;12.00;;;20.40;62.40;;;;;;4950577;28;20041;-74
2022/11/24 10:54:18;;;;;;;17.95;12.40;;;20.40;62.50;;;;;;4952043;28;20111;-74
2022/11/24 10:56:45;;;;;;;18.63;11.48;;;20.40;63.20;;;;;;4951251;28;20042;-74
2022/11/24 10:59:23;;;;;;;20.23;12.35;;;20.40;62.60;;;;;;4951502;29;20027;-74
2022/11/24 11:01:50;;;;;;;17.85;11.68;;;20.40;62.60;;;;;;4949911;28;20082;-74
2022/11/24 11:04:19;;;;;;;18.75;12.20;;;20.40;62.50;;;;;;4951068;28;20055;-74
2022/11/24 11:06:45;;;;;;;18.17;11.85;;;20.40;62.70;;;;;;4942407;28;20023;-75
2022/11/24 11:09:18;;;;;;;18.63;11.93;;;20.40;62.70;;;;;;4951119;28;20033;-75
2022/11/24 11:11:47;;;;;;;21.95;12.20;;;20.40;63.10;;;;;;4947724;28;20580;-75
2022/11/24 11:14:32;;;;;;;20.17;12.57;;;20.50;63.10;;;;;;4951069;28;20023;-75
2022/11/24 11:16:58;;;;;;;17.63;11.05;;;20.40;63.00;;;;;;4945798;29;20106;-73
2022/11/24 11:19:45;;;;;;;21.17;12.02;;;20.50;62.90;;;;;;4950191;29;20444;-74
2022/11/24 11:22:11;;;;;;;16.77;11.30;;;20.40;63.00;;;;;;4950747;28;20031;-73
2022/11/24 11:24:45;;;;;;;17.40;11.40;;;20.40;62.90;;;;;;4950188;28;20516;-74
2022/11/24 11:27:20;;;;;;;17.30;11.60;;;20.40;62.90;;;;;;4945404;29;20083;-74
2022/11/24 11:29:47;;;;;;;17.30;10.98;;;20.40;63.00;;;;;;4949434;29;20158;-75
2022/11/24 11:32:25;;;;;;;16.92;11.27;;;20.40;62.90;;;;;;4948972;28;20035;-75
2022/11/24 11:34:56;;;;;;;16.65;11.50;;;20.40;63.00;;;;;;4915153;29;20039;-74
2022/11/24 11:37:27;;;;;;;17.92;11.18;;;20.40;63.20;;;;;;4939036;29;20513;-75
2022/11/24 11:39:54;;;;;;;16.35;10.82;;;20.40;63.40;;;;;;4943946;29;20486;-74
2022/11/24 11:42:29;;;;;;;18.27;11.35;;;20.40;63.10;;;;;;4946008;28;20503;-79
2022/11/24 11:45:16;;;;;;;26.45;21.55;;;20.40;62.80;;;;;;4929119;29;20046;-79
2022/11/24 11:47:52;;;;;;;26.65;18.80;;;20.10;58.00;;;;;;4963534;28;20036;-79
2022/11/24 11:50:29;;;;;;;25.33;19.77;;;19.80;51.70;;;;;;4933375;29;20079;-78
2022/11/24 11:53:03;;;;;;;29.30;19.70;;;19.50;49.90;;;;;;4954264;28;20035;-78
2022/11/24 11:55:58;;;;;;;22.83;19.13;;;19.30;48.30;;;;;;4931442;29;20423;-79
2022/11/24 11:58:55;;;;;;;28.05;19.70;;;19.10;48.10;;;;;;4964607;28;20445;-80
2022/11/24 12:01:41;;;;;;;25.50;18.38;;;19.00;47.50;;;;;;4949400;28;20201;-80
2022/11/24 12:04:35;;;;;;;25.80;19.77;;;19.00;47.10;;;;;;4953427;28;20042;-80
2022/11/24 12:07:28;;;;;;;27.48;19.77;;;18.90;46.90;;;;;;4956493;28;20043;-79
2022/11/24 12:10:25;;;;;;;27.00;19.90;;;18.90;47.10;;;;;;4976344;28;20072;-78
2022/11/24 12:13:01;;;;;;;24.05;16.73;;;18.90;46.70;;;;;;4947687;29;20028;-74
2022/11/24 12:16:05;;;;;;;21.67;16.25;;;19.00;48.20;;;;;;4953589;28;20757;-74
2022/11/24 12:19:08;;;;;;;20.90;16.15;;;19.30;47.60;;;;;;4950262;28;20043;-74
2022/11/24 12:22:16;;;;;;;21.73;15.23;;;19.60;47.50;;;;;;4953382;28;20059;-74
2022/11/24 12:25:00;;;;;;;18.65;13.90;;;19.80;48.10;;;;;;4943973;29;20472;-74
2022/11/24 12:27:39;;;;;;;21.08;13.32;;;20.00;48.60;;;;;;4954304;29;20046;-73
2022/11/24 12:30:13;;;;;;;17.63;12.60;;;20.10;49.00;;;;;;4937293;29;20120;-74
2022/11/24 12:32:59;;;;;;;21.20;13.65;;;20.10;49.20;;;;;;4948919;28;20102;-74
2022/11/24 12:35:36;;;;;;;21.33;12.65;;;20.20;49.60;;;;;;4952155;29;20424;-74
2022/11/24 12:38:23;;;;;;;22.88;13.88;;;20.20;49.90;;;;;;4954149;28;20027;-74
2022/11/24 12:40:57;;;;;;;18.35;13.20;;;20.30;50.20;;;;;;4955509;28;20114;-74
2022/11/24 12:43:36;;;;;;;17.65;12.52;;;20.30;50.90;;;;;;4955853;28;20034;-74
2022/11/24 12:46:17;;;;;;;19.58;13.80;;;20.30;50.80;;;;;;4959829;28;20069;-74